sensor_id;sensor_type;location;lat;lon;timestamp;pressure;altitude;pressure_sealevel;temperature;humidity
24302;BME280;12421;49.732;20.078;2023-05-29T00:07:11;97031.77;;;8.04;77.36
24302;BME280;12421;49.732;20.078;2023-05-29T00:17:15;97024.23;;;7.97;77.15
24302;BME280;12421;49.732;20.078;2023-05-29T00:27:19;97014.94;;;7.77;77.19
24302;BME280;12421;49.732;20.078;2023-05-29T00:37:23;97013.49;;;7.49;77.77
24302;BME280;12421;49.732;20.078;2023-05-29T00:47:27;97016.44;;;7.40;78.08
24302;BME280;12421;49.732;20.078;2023-05-29T00:57:36;97013.13;;;7.42;78.36
24302;BME280;12421;49.732;20.078;2023-05-29T01:07:41;97008.73;;;7.31;78.34
24302;BME280;12421;49.732;20.078;2023-05-29T01:18:04;97003.64;;;7.21;78.72
24302;BME280;12421;49.732;20.078;2023-05-29T01:28:10;97006.55;;;7.10;78.84
24302;BME280;12421;49.732;20.078;2023-05-29T01:38:15;97007.95;;;7.06;78.96
24302;BME280;12421;49.732;20.078;2023-05-29T01:48:19;97007.71;;;6.92;78.33
24302;BME280;12421;49.732;20.078;2023-05-29T01:58:23;97010.22;;;6.71;78.89
24302;BME280;12421;49.732;20.078;2023-05-29T02:08:28;96999.73;;;6.66;78.90
24302;BME280;12421;49.732;20.078;2023-05-29T02:18:32;96998.39;;;6.47;78.64
24302;BME280;12421;49.732;20.078;2023-05-29T02:28:37;96996.26;;;6.40;78.96
24302;BME280;12421;49.732;20.078;2023-05-29T02:39:05;96986.44;;;6.30;79.00
24302;BME280;12421;49.732;20.078;2023-05-29T02:49:08;96984.26;;;6.18;79.03
24302;BME280;12421;49.732;20.078;2023-05-29T02:59:11;96992.11;;;6.17;79.14
24302;BME280;12421;49.732;20.078;2023-05-29T03:09:14;96984.48;;;6.24;79.20
24302;BME280;12421;49.732;20.078;2023-05-29T03:19:20;96986.36;;;6.19;79.60
24302;BME280;12421;49.732;20.078;2023-05-29T03:29:24;96986.44;;;6.31;79.88
24302;BME280;12421;49.732;20.078;2023-05-29T03:39:28;96987.09;;;6.51;79.93
24302;BME280;12421;49.732;20.078;2023-05-29T03:49:32;96984.86;;;6.59;79.51
24302;BME280;12421;49.732;20.078;2023-05-29T03:59:37;96987.95;;;6.81;79.79
24302;BME280;12421;49.732;20.078;2023-05-29T04:09:41;96991.39;;;7.19;80.00
24302;BME280;12421;49.732;20.078;2023-05-29T04:19:44;96990.13;;;7.77;79.77
24302;BME280;12421;49.732;20.078;2023-05-29T04:29:47;96993.64;;;8.26;79.41
24302;BME280;12421;49.732;20.078;2023-05-29T04:39:50;97000.17;;;8.90;79.64
24302;BME280;12421;49.732;20.078;2023-05-29T04:49:59;96995.70;;;9.48;78.81
24302;BME280;12421;49.732;20.078;2023-05-29T05:00:03;96990.02;;;10.10;78.10
24302;BME280;12421;49.732;20.078;2023-05-29T05:10:19;96987.61;;;10.96;76.74
24302;BME280;12421;49.732;20.078;2023-05-29T05:20:23;96987.52;;;12.18;75.08
24302;BME280;12421;49.732;20.078;2023-05-29T05:30:30;96986.08;;;13.58;72.66
24302;BME280;12421;49.732;20.078;2023-05-29T05:40:35;96985.50;;;14.98;69.01
24302;BME280;12421;49.732;20.078;2023-05-29T05:50:47;96976.06;;;15.80;66.24
24302;BME280;12421;49.732;20.078;2023-05-29T06:00:51;96974.98;;;16.30;64.88
24302;BME280;12421;49.732;20.078;2023-05-29T06:11:21;96979.00;;;16.80;63.00
24302;BME280;12421;49.732;20.078;2023-05-29T06:21:25;96985.58;;;17.72;61.85
24302;BME280;12421;49.732;20.078;2023-05-29T06:31:30;96991.79;;;19.11;59.14
24302;BME280;12421;49.732;20.078;2023-05-29T06:41:34;96989.23;;;20.14;56.78
24302;BME280;12421;49.732;20.078;2023-05-29T06:51:37;96992.21;;;20.84;55.26
24302;BME280;12421;49.732;20.078;2023-05-29T07:02:04;96998.36;;;21.77;53.57
24302;BME280;12421;49.732;20.078;2023-05-29T07:12:09;97003.92;;;22.45;51.02
24302;BME280;12421;49.732;20.078;2023-05-29T07:22:38;97006.05;;;22.98;51.35
24302;BME280;12421;49.732;20.078;2023-05-29T07:32:41;97002.27;;;23.46;50.60
24302;BME280;12421;49.732;20.078;2023-05-29T07:42:45;96997.27;;;23.89;48.09
24302;BME280;12421;49.732;20.078;2023-05-29T07:52:49;97003.06;;;24.24;45.00
24302;BME280;12421;49.732;20.078;2023-05-29T08:02:52;97005.81;;;23.46;44.02
24302;BME280;12421;49.732;20.078;2023-05-29T08:13:01;97007.98;;;23.22;45.05
24302;BME280;12421;49.732;20.078;2023-05-29T08:23:06;97007.81;;;23.04;44.80
24302;BME280;12421;49.732;20.078;2023-05-29T08:33:09;97012.53;;;22.73;45.80
24302;BME280;12421;49.732;20.078;2023-05-29T08:43:16;97009.64;;;22.61;46.02
24302;BME280;12421;49.732;20.078;2023-05-29T08:53:21;97020.15;;;22.68;46.67
24302;BME280;12421;49.732;20.078;2023-05-29T09:03:24;97022.24;;;22.53;46.14
24302;BME280;12421;49.732;20.078;2023-05-29T09:13:28;97017.92;;;22.66;45.85
24302;BME280;12421;49.732;20.078;2023-05-29T09:23:31;97011.14;;;22.47;45.28
24302;BME280;12421;49.732;20.078;2023-05-29T09:33:46;97007.77;;;22.75;45.68
24302;BME280;12421;49.732;20.078;2023-05-29T09:43:50;97002.48;;;22.55;45.42
24302;BME280;12421;49.732;20.078;2023-05-29T09:53:53;97008.39;;;22.70;45.86
24302;BME280;12421;49.732;20.078;2023-05-29T10:04:22;97009.41;;;22.77;45.43
24302;BME280;12421;49.732;20.078;2023-05-29T10:14:53;97009.80;;;22.52;46.38
24302;BME280;12421;49.732;20.078;2023-05-29T10:25:24;97006.38;;;22.68;46.88
24302;BME280;12421;49.732;20.078;2023-05-29T10:35:44;97011.20;;;22.62;46.39
24302;BME280;12421;49.732;20.078;2023-05-29T10:45:51;97005.73;;;22.73;46.55
24302;BME280;12421;49.732;20.078;2023-05-29T10:55:54;97009.17;;;22.82;46.49
24302;BME280;12421;49.732;20.078;2023-05-29T11:26:27;96990.49;;;23.09;45.70
24302;BME280;12421;49.732;20.078;2023-05-29T11:36:32;96993.14;;;22.92;44.96
24302;BME280;12421;49.732;20.078;2023-05-29T11:46:35;96990.42;;;22.90;44.97
24302;BME280;12421;49.732;20.078;2023-05-29T11:56:39;96981.61;;;22.87;44.79
24302;BME280;12421;49.732;20.078;2023-05-29T12:06:43;96974.11;;;23.05;45.05
24302;BME280;12421;49.732;20.078;2023-05-29T12:16:47;96968.59;;;23.16;43.34
24302;BME280;12421;49.732;20.078;2023-05-29T12:26:51;96961.33;;;22.97;43.09
24302;BME280;12421;49.732;20.078;2023-05-29T12:36:55;96958.52;;;22.93;42.62
24302;BME280;12421;49.732;20.078;2023-05-29T12:47:06;96956.45;;;23.24;41.97
24302;BME280;12421;49.732;20.078;2023-05-29T12:57:12;96949.86;;;23.53;41.61
24302;BME280;12421;49.732;20.078;2023-05-29T13:07:16;96958.23;;;23.48;41.34
24302;BME280;12421;49.732;20.078;2023-05-29T13:17:19;96953.10;;;23.50;40.99
24302;BME280;12421;49.732;20.078;2023-05-29T13:27:22;96952.33;;;23.36;41.10
24302;BME280;12421;49.732;20.078;2023-05-29T13:37:27;96940.23;;;23.20;40.96
24302;BME280;12421;49.732;20.078;2023-05-29T13:47:30;96933.41;;;23.27;41.38
24302;BME280;12421;49.732;20.078;2023-05-29T13:57:35;96926.61;;;23.26;40.95
24302;BME280;12421;49.732;20.078;2023-05-29T14:07:39;96924.80;;;23.12;41.76
24302;BME280;12421;49.732;20.078;2023-05-29T14:17:42;96927.86;;;23.00;40.54
24302;BME280;12421;49.732;20.078;2023-05-29T14:27:46;96920.07;;;22.89;41.05
24302;BME280;12421;49.732;20.078;2023-05-29T14:37:49;96915.61;;;22.95;40.74
24302;BME280;12421;49.732;20.078;2023-05-29T14:47:52;96912.77;;;22.92;40.61
24302;BME280;12421;49.732;20.078;2023-05-29T14:57:56;96907.45;;;22.91;40.23
24302;BME280;12421;49.732;20.078;2023-05-29T15:07:59;96907.75;;;22.77;39.42
24302;BME280;12421;49.732;20.078;2023-05-29T15:18:03;96906.28;;;22.57;39.64
24302;BME280;12421;49.732;20.078;2023-05-29T15:28:06;96905.58;;;22.47;40.06
24302;BME280;12421;49.732;20.078;2023-05-29T15:38:10;96904.83;;;22.51;40.53
24302;BME280;12421;49.732;20.078;2023-05-29T15:48:15;96901.02;;;22.33;40.01
24302;BME280;12421;49.732;20.078;2023-05-29T15:58:18;96910.45;;;22.28;40.00
24302;BME280;12421;49.732;20.078;2023-05-29T16:08:25;96902.16;;;22.01;40.31
24302;BME280;12421;49.732;20.078;2023-05-29T16:18:28;96903.91;;;21.92;40.05
24302;BME280;12421;49.732;20.078;2023-05-29T16:28:31;96912.56;;;21.71;40.43
24302;BME280;12421;49.732;20.078;2023-05-29T16:38:35;96917.35;;;21.75;41.25
24302;BME280;12421;49.732;20.078;2023-05-29T16:48:38;96922.08;;;21.67;41.31
24302;BME280;12421;49.732;20.078;2023-05-29T16:58:43;96917.77;;;21.48;41.55
24302;BME280;12421;49.732;20.078;2023-05-29T17:08:46;96918.26;;;21.20;43.74
24302;BME280;12421;49.732;20.078;2023-05-29T17:18:49;96919.16;;;20.88;43.19
24302;BME280;12421;49.732;20.078;2023-05-29T17:28:52;96915.94;;;20.61;43.70
24302;BME280;12421;49.732;20.078;2023-05-29T17:38:55;96906.83;;;20.11;46.26
24302;BME280;12421;49.732;20.078;2023-05-29T17:48:59;96915.96;;;19.55;48.21
24302;BME280;12421;49.732;20.078;2023-05-29T17:59:02;96919.77;;;18.94;51.90
24302;BME280;12421;49.732;20.078;2023-05-29T18:09:07;96925.73;;;18.17;54.56
24302;BME280;12421;49.732;20.078;2023-05-29T18:19:15;96937.98;;;17.40;56.59
24302;BME280;12421;49.732;20.078;2023-05-29T18:29:19;96945.86;;;16.69;58.90
24302;BME280;12421;49.732;20.078;2023-05-29T18:39:22;96954.65;;;15.85;60.97
24302;BME280;12421;49.732;20.078;2023-05-29T18:49:26;96969.61;;;15.10;63.00
24302;BME280;12421;49.732;20.078;2023-05-29T18:59:34;96976.17;;;14.50;64.55
24302;BME280;12421;49.732;20.078;2023-05-29T19:09:37;96989.34;;;13.95;65.75
24302;BME280;12421;49.732;20.078;2023-05-29T19:19:41;96997.64;;;13.47;67.17
24302;BME280;12421;49.732;20.078;2023-05-29T19:29:44;97007.90;;;13.01;68.35
24302;BME280;12421;49.732;20.078;2023-05-29T19:39:47;97013.30;;;12.45;69.36
24302;BME280;12421;49.732;20.078;2023-05-29T19:49:56;97021.48;;;11.97;70.33
24302;BME280;12421;49.732;20.078;2023-05-29T20:00:03;97031.16;;;11.57;71.43
24302;BME280;12421;49.732;20.078;2023-05-29T20:10:13;97034.42;;;11.35;72.17
24302;BME280;12421;49.732;20.078;2023-05-29T20:20:16;97040.05;;;11.03;72.30
24302;BME280;12421;49.732;20.078;2023-05-29T20:30:20;97041.92;;;10.77;72.94
24302;BME280;12421;49.732;20.078;2023-05-29T20:40:23;97042.31;;;10.55;73.53
24302;BME280;12421;49.732;20.078;2023-05-29T20:50:26;97037.79;;;10.29;74.08
24302;BME280;12421;49.732;20.078;2023-05-29T21:00:30;97032.71;;;10.01;74.51
24302;BME280;12421;49.732;20.078;2023-05-29T21:10:35;97027.81;;;9.72;74.93
24302;BME280;12421;49.732;20.078;2023-05-29T21:20:38;97027.05;;;9.52;75.49
24302;BME280;12421;49.732;20.078;2023-05-29T21:30:41;97028.05;;;9.27;75.56
24302;BME280;12421;49.732;20.078;2023-05-29T21:40:45;97032.16;;;9.06;76.18
24302;BME280;12421;49.732;20.078;2023-05-29T21:50:48;97027.16;;;8.79;76.50
24302;BME280;12421;49.732;20.078;2023-05-29T22:00:51;97024.91;;;8.68;76.72
24302;BME280;12421;49.732;20.078;2023-05-29T22:10:57;97024.77;;;8.52;76.79
24302;BME280;12421;49.732;20.078;2023-05-29T22:21:01;97022.69;;;8.36;76.80
24302;BME280;12421;49.732;20.078;2023-05-29T22:31:32;97019.01;;;8.19;77.12
24302;BME280;12421;49.732;20.078;2023-05-29T22:41:36;97016.55;;;8.09;77.41
24302;BME280;12421;49.732;20.078;2023-05-29T22:51:39;97014.78;;;7.98;77.18
24302;BME280;12421;49.732;20.078;2023-05-29T23:01:42;97010.92;;;7.85;77.16
24302;BME280;12421;49.732;20.078;2023-05-29T23:11:46;97010.38;;;7.63;77.58
24302;BME280;12421;49.732;20.078;2023-05-29T23:21:49;97013.84;;;7.48;78.25
24302;BME280;12421;49.732;20.078;2023-05-29T23:31:52;97014.34;;;7.42;78.53
24302;BME280;12421;49.732;20.078;2023-05-29T23:41:55;97012.59;;;7.36;78.75
24302;BME280;12421;49.732;20.078;2023-05-29T23:52:00;97014.96;;;7.18;78.65
